TimeCDT,TemperatureF,Dew PointF,Humidity,Sea Level PressureIn,VisibilityMPH,Wind Direction,Wind SpeedMPH,Gust SpeedMPH,PrecipitationIn,Events,Conditions,WindDirDegrees,DateUTC
12:53 AM,34.0,28.9,82,30.10,9.0,WNW,19.6,34.5,0.00,,Overcast,300,2012-10-05 05:53:00
1:53 AM,33.1,28.0,82,30.11,10.0,WNW,20.7,29.9,0.00,,Overcast,300,2012-10-05 06:53:00
2:53 AM,33.8,26.6,75,30.05,9.0,WNW,24.2,29.9,N/A,,Overcast,300,2012-10-05 07:53:00
3:53 AM,33.1,26.1,75,30.09,10.0,WNW,27.6,35.7,N/A,,Overcast,300,2012-10-05 08:53:00
4:53 AM,32.0,27.0,82,30.09,10.0,WNW,23.0,33.4,N/A,,Overcast,300,2012-10-05 09:53:00
5:35 AM,32.0,26.6,80,30.04,10.0,WNW,21.9,31.1,0.00,,Overcast,300,2012-10-05 10:35:00
5:46 AM,32.0,26.6,80,30.03,10.0,WNW,20.7,34.5,0.00,,Overcast,300,2012-10-05 10:46:00
5:53 AM,32.0,26.1,79,30.09,10.0,WNW,19.6,32.2,0.00,,Overcast,300,2012-10-05 10:53:00
6:53 AM,32.0,26.1,79,30.09,10.0,WNW,20.7,27.6,N/A,,Overcast,300,2012-10-05 11:53:00
7:53 AM,30.9,26.1,82,30.09,10.0,WNW,23.0,33.4,0.00,,Overcast,300,2012-10-05 12:53:00
8:53 AM,32.0,26.1,79,30.10,10.0,WNW,23.0,33.4,0.00,,Overcast,290,2012-10-05 13:53:00
9:53 AM,33.1,27.0,78,30.11,10.0,WNW,23.0,31.1,0.00,,Overcast,300,2012-10-05 14:53:00
10:53 AM,35.1,27.0,72,30.12,10.0,WNW,18.4,32.2,0.00,,Overcast,300,2012-10-05 15:53:00
11:53 AM,35.1,28.9,78,30.13,9.0,WNW,17.3,28.8,0.00,,Overcast,300,2012-10-05 16:53:00
12:53 PM,37.0,28.0,70,30.12,8.0,NW,24.2,31.1,0.00,Snow,Light Snow,310,2012-10-05 17:53:00
1:53 PM,36.0,28.0,73,30.12,9.0,NW,24.2,31.1,0.00,Snow,Light Snow,310,2012-10-05 18:53:00
2:16 PM,35.6,26.6,70,30.07,7.0,NW,21.9,38.0,0.00,Snow,Light Snow,320,2012-10-05 19:16:00
2:30 PM,35.6,26.6,70,30.07,7.0,WNW,24.2,-,0.00,Snow,Light Snow,300,2012-10-05 19:30:00
2:53 PM,37.0,28.0,70,30.12,10.0,NW,24.2,38.0,0.00,Rain,Light Rain,310,2012-10-05 19:53:00
3:53 PM,36.0,27.0,70,30.14,10.0,NW,24.2,31.1,0.00,,Overcast,310,2012-10-05 20:53:00
4:01 PM,35.6,26.6,70,30.09,10.0,NW,21.9,29.9,0.00,,Overcast,310,2012-10-05 21:01:00
4:16 PM,35.6,28.4,75,30.09,6.0,NW,19.6,24.2,0.00,Snow,Light Snow,310,2012-10-05 21:16:00
4:25 PM,35.6,28.4,75,30.09,9.0,WNW,23.0,28.8,0.00,Snow,Light Snow,300,2012-10-05 21:25:00
4:33 PM,33.8,28.4,81,30.09,2.5,WNW,19.6,28.8,0.00,Snow,Light Snow,300,2012-10-05 21:33:00
4:35 PM,33.8,28.4,81,30.09,1.5,WNW,16.1,27.6,0.00,Snow,Light Snow,300,2012-10-05 21:35:00
4:42 PM,33.8,28.4,81,30.09,2.0,WNW,18.4,25.3,0.00,Snow,Light Snow,300,2012-10-05 21:42:00
4:50 PM,33.8,28.4,81,30.10,9.0,NW,19.6,26.5,0.00,,Overcast,310,2012-10-05 21:50:00
4:53 PM,34.0,28.0,79,30.15,10.0,NW,16.1,26.5,0.00,,Overcast,310,2012-10-05 21:53:00
5:24 PM,33.8,26.6,75,30.10,10.0,WNW,11.5,-,N/A,,Overcast,300,2012-10-05 22:24:00
5:53 PM,34.0,27.0,75,30.17,10.0,WNW,17.3,25.3,N/A,,Mostly Cloudy,300,2012-10-05 22:53:00
6:09 PM,33.8,26.6,75,30.11,10.0,WNW,19.6,24.2,N/A,,Overcast,300,2012-10-05 23:09:00
6:53 PM,33.1,27.0,78,30.18,10.0,NW,12.7,21.9,N/A,,Overcast,310,2012-10-05 23:53:00
7:08 PM,33.8,26.6,75,30.12,10.0,WNW,13.8,-,N/A,,Overcast,300,2012-10-06 00:08:00
7:53 PM,33.1,28.0,82,30.19,10.0,NW,15.0,-,0.00,,Overcast,310,2012-10-06 00:53:00
8:53 PM,32.0,28.9,88,30.20,6.0,NW,12.7,-,0.00,Snow,Light Snow,310,2012-10-06 01:53:00
9:29 PM,32.0,28.4,87,30.15,7.0,NW,11.5,-,0.00,Snow,Light Snow,310,2012-10-06 02:29:00
9:45 PM,32.0,28.4,87,30.15,5.0,NW,12.7,-,0.00,Snow,Light Snow,320,2012-10-06 02:45:00
9:53 PM,32.0,28.9,88,30.21,7.0,NW,12.7,-,0.00,Snow,Light Snow,320,2012-10-06 02:53:00
10:43 PM,33.8,28.4,81,30.16,10.0,NNW,9.2,-,0.00,,Overcast,330,2012-10-06 03:43:00
10:53 PM,33.1,28.9,85,30.22,10.0,NNW,10.4,-,0.00,,Overcast,330,2012-10-06 03:53:00
11:17 PM,33.8,28.4,81,30.16,10.0,NW,12.7,-,N/A,,Overcast,320,2012-10-06 04:17:00
11:44 PM,33.8,28.4,81,30.16,9.0,NW,11.5,-,0.00,Snow,Light Snow,320,2012-10-06 04:44:00
11:53 PM,33.1,28.9,85,30.22,9.0,NW,10.4,-,0.00,Snow,Light Snow,320,2012-10-06 04:53:00